createdAt,value
2023-02-12T00:02:00.542Z,0.70
2023-02-12T00:04:30.628Z,0.80
2023-02-12T00:06:59.262Z,0.80
2023-02-12T00:09:27.912Z,0.80
2023-02-12T00:11:57.693Z,0.80
2023-02-12T00:14:26.090Z,0.90
2023-02-12T00:16:55.121Z,0.80
2023-02-12T00:19:24.296Z,0.90
2023-02-12T00:21:54.470Z,0.90
2023-02-12T00:24:23.163Z,0.90
2023-02-12T00:26:52.017Z,0.90
2023-02-12T00:29:20.704Z,0.80
2023-02-12T00:31:49.334Z,0.80
2023-02-12T00:34:17.997Z,0.70
2023-02-12T00:36:46.632Z,0.60
2023-02-12T00:39:16.599Z,0.60
2023-02-12T00:41:45.316Z,0.60
2023-02-12T00:44:14.042Z,0.60
2023-02-12T00:46:42.868Z,0.60
2023-02-12T00:49:11.508Z,0.60
2023-02-12T00:51:40.297Z,0.60
2023-02-12T00:54:12.386Z,0.60
2023-02-12T00:56:42.477Z,0.60
2023-02-12T00:59:11.053Z,0.60
2023-02-12T01:01:39.720Z,0.60
2023-02-12T01:04:08.469Z,0.60
2023-02-12T01:06:37.341Z,0.60
2023-02-12T01:09:06.046Z,0.60
2023-02-12T01:11:34.827Z,0.60
2023-02-12T01:14:05.163Z,0.70
2023-02-12T01:16:36.762Z,0.70
2023-02-12T01:19:06.139Z,0.70
2023-02-12T01:21:36.205Z,0.70
2023-02-12T01:24:05.713Z,0.70
2023-02-12T01:26:34.663Z,0.60
2023-02-12T01:29:07.624Z,0.60
2023-02-12T01:31:39.077Z,0.60
2023-02-12T01:34:08.981Z,0.50
2023-02-12T01:36:37.269Z,0.40
2023-02-12T01:39:07.099Z,0.40
2023-02-12T01:41:37.123Z,0.40
2023-02-12T01:44:26.950Z,0.40
2023-02-12T01:47:02.517Z,0.30
2023-02-12T01:49:35.082Z,0.30
2023-02-12T01:52:08.456Z,0.30
2023-02-12T01:54:38.924Z,0.30
2023-02-12T01:57:11.179Z,0.40
2023-02-12T01:59:44.437Z,0.40
2023-02-12T02:02:13.633Z,0.40
2023-02-12T02:04:53.137Z,0.40
2023-02-12T02:07:25.261Z,0.40
2023-02-12T02:09:59.558Z,0.30
2023-02-12T02:12:54.254Z,0.30
2023-02-12T02:15:27.553Z,0.30
2023-02-12T02:18:03.948Z,0.30
2023-02-12T02:21:01.743Z,0.40
2023-02-12T02:23:58.428Z,0.40
2023-02-12T02:26:50.312Z,0.40
2023-02-12T02:29:40.107Z,0.40
2023-02-12T02:32:19.446Z,0.40
2023-02-12T02:35:01.740Z,0.40
2023-02-12T02:37:38.324Z,0.40
2023-02-12T02:40:13.770Z,0.40
2023-02-12T02:42:47.190Z,0.40
2023-02-12T02:45:24.639Z,0.40
2023-02-12T02:47:58.879Z,0.40
2023-02-12T02:50:31.766Z,0.50
2023-02-12T02:53:05.838Z,0.40
2023-02-12T02:55:41.722Z,0.40
2023-02-12T02:58:13.843Z,0.40
2023-02-12T03:00:49.048Z,0.40
2023-02-12T03:03:26.592Z,0.40
2023-02-12T03:06:00.155Z,0.40
2023-02-12T03:08:34.410Z,0.40
2023-02-12T03:11:08.783Z,0.40
2023-02-12T03:13:45.244Z,0.40
2023-02-12T03:16:19.738Z,0.40
2023-02-12T03:18:55.207Z,0.40
2023-02-12T03:21:37.341Z,0.40
2023-02-12T03:24:14.057Z,0.30
2023-02-12T03:26:49.995Z,0.30
2023-02-12T03:29:21.406Z,0.30
2023-02-12T03:32:01.401Z,0.30
2023-02-12T03:34:41.617Z,0.30
2023-02-12T03:37:20.605Z,0.30
2023-02-12T03:40:10.355Z,0.30
2023-02-12T03:42:50.915Z,0.20
2023-02-12T03:45:29.626Z,0.30
2023-02-12T03:48:06.084Z,0.30
2023-02-12T03:50:44.366Z,0.30
2023-02-12T03:53:13.222Z,0.30
2023-02-12T03:55:45.476Z,0.20
2023-02-12T03:58:18.673Z,0.30
2023-02-12T04:00:47.747Z,0.20
2023-02-12T04:03:16.576Z,0.20
2023-02-12T04:05:49.671Z,0.20
2023-02-12T04:08:19.711Z,0.20
2023-02-12T04:11:07.291Z,0.20
2023-02-12T04:13:48.545Z,0.20
2023-02-12T04:16:26.971Z,0.10
2023-02-12T04:18:57.993Z,0.10
2023-02-12T04:21:44.982Z,0.10
2023-02-12T04:24:20.612Z,0.10
2023-02-12T04:26:57.113Z,0.10
2023-02-12T04:29:32.620Z,0.10
2023-02-12T04:32:09.221Z,0.10
2023-02-12T04:34:46.449Z,0.00
2023-02-12T04:37:20.510Z,0.00
2023-02-12T04:39:51.286Z,0.00
2023-02-12T04:42:20.209Z,-0.10
2023-02-12T04:44:51.469Z,-0.10
2023-02-12T04:47:20.218Z,-0.10
2023-02-12T04:49:53.201Z,-0.20
2023-02-12T04:52:25.308Z,-0.20
2023-02-12T04:54:54.316Z,-0.20
2023-02-12T04:57:25.174Z,-0.30
2023-02-12T04:59:53.853Z,-0.30
2023-02-12T05:02:22.592Z,-0.30
2023-02-12T05:04:53.920Z,-0.30
2023-02-12T05:12:29.043Z,-0.40
2023-02-12T05:14:58.535Z,-0.40
2023-02-12T05:17:27.421Z,-0.20
2023-02-12T05:19:58.487Z,-0.20
2023-02-12T05:22:28.618Z,-0.20
2023-02-12T05:24:57.384Z,-0.20
2023-02-12T05:27:26.173Z,-0.20
2023-02-12T05:29:54.980Z,-0.20
2023-02-12T05:32:23.813Z,-0.20
2023-02-12T05:34:52.548Z,-0.20
2023-02-12T05:37:25.807Z,-0.20
2023-02-12T05:39:55.936Z,-0.20
2023-02-12T05:42:25.254Z,-0.20
2023-02-12T05:44:53.943Z,-0.30
2023-02-12T06:02:22.663Z,-0.60
2023-02-12T06:04:51.465Z,-0.50
2023-02-12T06:07:20.233Z,-0.60
2023-02-12T06:09:49.103Z,-0.70
2023-02-12T06:12:17.786Z,-0.60
2023-02-12T06:14:49.136Z,-0.70
2023-02-12T06:17:19.734Z,-0.70
2023-02-12T06:19:50.657Z,-0.70
2023-02-12T06:22:19.474Z,-0.70
2023-02-12T06:24:48.014Z,-0.70
2023-02-12T06:27:16.601Z,-0.70
2023-02-12T06:29:45.222Z,-0.70
2023-02-12T06:32:15.569Z,-0.70
2023-02-12T06:34:44.246Z,-0.70
2023-02-12T06:37:13.708Z,-0.70
2023-02-12T06:39:42.993Z,-0.70
2023-02-12T06:42:11.541Z,-0.70
2023-02-12T06:44:40.194Z,-0.60
2023-02-12T06:47:08.849Z,-0.60
2023-02-12T06:49:38.815Z,-0.60
2023-02-12T06:52:07.476Z,-0.60
2023-02-12T06:54:36.063Z,-0.60
2023-02-12T06:57:04.893Z,-0.50
2023-02-12T06:59:33.583Z,-0.50
2023-02-12T07:02:02.152Z,-0.60
2023-02-12T07:04:30.806Z,-0.50
2023-02-12T07:07:00.741Z,-0.60
2023-02-12T07:09:29.346Z,-0.50
2023-02-12T07:11:59.927Z,-0.50
2023-02-12T07:14:28.859Z,-0.50
2023-02-12T07:16:57.643Z,-0.50
2023-02-12T07:19:26.411Z,-0.50
2023-02-12T07:21:55.084Z,-0.50
2023-02-12T07:24:25.159Z,-0.40
2023-02-12T07:26:53.711Z,-0.30
2023-02-12T07:29:22.319Z,-0.20
2023-02-12T07:31:50.893Z,-0.20
2023-02-12T07:34:19.520Z,-0.10
2023-02-12T07:36:48.092Z,-0.10
2023-02-12T07:39:16.693Z,0.00
2023-02-12T07:41:46.684Z,0.00
2023-02-12T07:44:15.359Z,0.10
2023-02-12T07:46:48.292Z,0.10
2023-02-12T07:49:19.605Z,0.40
2023-02-12T07:51:48.961Z,0.30
2023-02-12T07:54:17.541Z,0.30
2023-02-12T07:56:48.085Z,0.30
2023-02-12T07:59:19.112Z,0.40
2023-02-12T08:01:49.384Z,0.40
2023-02-12T08:04:20.390Z,0.40
2023-02-12T08:06:51.103Z,0.40
2023-02-12T08:09:24.634Z,0.40
2023-02-12T08:11:54.688Z,0.40
2023-02-12T08:14:24.170Z,0.40
2023-02-12T08:16:53.608Z,0.50
2023-02-12T08:19:26.243Z,0.50
2023-02-12T08:21:56.510Z,0.50
2023-02-12T08:24:25.480Z,0.50
2023-02-12T08:26:55.691Z,0.50
2023-02-12T08:29:26.127Z,0.50
2023-02-12T08:31:58.929Z,0.50
2023-02-12T08:34:29.584Z,0.50
2023-02-12T08:36:58.611Z,0.60
2023-02-12T08:39:29.163Z,0.60
2023-02-12T08:42:00.008Z,0.60
2023-02-12T08:44:29.142Z,0.60
2023-02-12T08:46:57.724Z,0.60
2023-02-12T08:49:27.911Z,0.60
2023-02-12T08:51:58.572Z,0.60
2023-02-12T08:54:29.754Z,0.60
2023-02-12T08:57:00.871Z,0.60
2023-02-12T08:59:29.659Z,0.60
2023-02-12T09:01:58.246Z,0.60
2023-02-12T09:04:29.090Z,0.60
2023-02-12T09:06:58.124Z,0.70
2023-02-12T09:09:26.759Z,0.70
2023-02-12T09:11:55.489Z,0.80
2023-02-12T09:14:25.512Z,0.80
2023-02-12T09:16:55.101Z,0.90
2023-02-12T09:19:24.008Z,0.80
2023-02-12T09:21:55.729Z,0.90
2023-02-12T09:24:25.721Z,1.10
2023-02-12T09:26:54.442Z,1.10
2023-02-12T09:29:24.534Z,1.10
2023-02-12T09:31:53.455Z,1.10
2023-02-12T09:34:22.186Z,1.20
2023-02-12T09:36:50.911Z,1.20
2023-02-12T09:39:19.529Z,1.30
2023-02-12T09:42:23.825Z,1.20
2023-02-12T09:45:00.039Z,1.20
2023-02-12T09:47:34.761Z,1.20
2023-02-12T09:50:28.479Z,1.20
2023-02-12T09:52:59.369Z,1.20
2023-02-12T09:55:31.871Z,1.20
2023-02-12T09:58:02.595Z,1.20
2023-02-12T10:00:33.500Z,1.20
2023-02-12T10:03:05.817Z,1.30
2023-02-12T10:05:37.555Z,1.30
2023-02-12T10:08:27.672Z,1.30
2023-02-12T10:11:06.737Z,1.40
2023-02-12T10:13:45.119Z,1.40
2023-02-12T10:16:21.612Z,1.40
2023-02-12T10:19:14.205Z,1.50
2023-02-12T10:21:54.648Z,1.50
2023-02-12T10:24:36.747Z,1.50
2023-02-12T10:27:14.421Z,1.50
2023-02-12T10:29:44.647Z,1.50
2023-02-12T10:32:24.543Z,1.50
2023-02-12T10:34:55.447Z,1.50
2023-02-12T10:37:32.619Z,1.60
2023-02-12T10:40:06.226Z,1.60
2023-02-12T10:42:40.534Z,1.60
2023-02-12T10:45:15.359Z,1.60
2023-02-12T10:47:46.111Z,1.60
2023-02-12T10:50:26.739Z,1.60
2023-02-12T10:52:58.203Z,1.60
2023-02-12T10:55:29.769Z,1.60
2023-02-12T10:57:59.417Z,1.60
2023-02-12T11:00:32.113Z,1.60
2023-02-12T11:03:21.732Z,1.60
2023-02-12T11:05:50.882Z,1.70
2023-02-12T11:08:33.536Z,1.70
2023-02-12T11:11:08.896Z,1.70
2023-02-12T11:13:38.710Z,1.70
2023-02-12T11:16:07.258Z,1.70
2023-02-12T11:18:38.105Z,1.70
2023-02-12T11:21:08.254Z,1.70
2023-02-12T11:23:38.933Z,1.70
2023-02-12T11:26:21.780Z,1.70
2023-02-12T11:28:55.936Z,1.80
2023-02-12T11:31:26.510Z,1.80
2023-02-12T11:34:18.947Z,1.90
2023-02-12T11:36:50.102Z,1.90
2023-02-12T11:39:23.017Z,1.90
2023-02-12T11:41:55.277Z,2.10
2023-02-12T11:44:27.562Z,2.00
2023-02-12T11:46:59.231Z,2.00
2023-02-12T11:49:31.812Z,2.00
2023-02-12T11:52:04.331Z,2.00
2023-02-12T11:54:38.813Z,2.00
2023-02-12T11:57:07.464Z,2.10
2023-02-12T11:59:37.858Z,2.10
2023-02-12T12:02:19.341Z,2.20
2023-02-12T12:04:51.517Z,2.20
2023-02-12T12:07:24.000Z,2.20
2023-02-12T12:10:00.291Z,2.10
2023-02-12T12:12:36.593Z,2.10
2023-02-12T12:15:26.852Z,2.10
2023-02-12T12:18:17.557Z,2.20
2023-02-12T12:20:52.804Z,2.20
2023-02-12T12:23:30.418Z,2.20
2023-02-12T12:26:04.416Z,2.20
2023-02-12T12:28:38.734Z,2.20
2023-02-12T12:31:11.797Z,2.30
2023-02-12T12:33:47.659Z,2.30
2023-02-12T12:37:02.510Z,2.30
2023-02-12T12:39:37.596Z,2.30
2023-02-12T12:42:48.650Z,2.30
2023-02-12T12:45:35.363Z,2.30
2023-02-12T12:48:18.606Z,2.40
2023-02-12T12:51:09.851Z,2.40
2023-02-12T12:53:53.292Z,2.40
2023-02-12T13:00:25.178Z,2.40
2023-02-12T13:03:30.337Z,2.40
2023-02-12T13:06:26.654Z,2.40
2023-02-12T13:09:29.570Z,2.40
2023-02-12T13:12:25.680Z,2.40
2023-02-12T13:15:09.480Z,2.40
2023-02-12T13:17:49.941Z,2.40
2023-02-12T13:20:30.628Z,2.40
2023-02-12T13:25:57.965Z,2.40
2023-02-12T13:28:37.904Z,2.40
2023-02-12T13:31:32.395Z,2.40
2023-02-12T13:34:05.682Z,2.50
2023-02-12T13:36:37.564Z,2.50
2023-02-12T13:39:17.520Z,2.50
2023-02-12T13:42:01.213Z,2.50
2023-02-12T13:44:38.529Z,2.50
2023-02-12T13:47:19.569Z,2.50
2023-02-12T13:50:01.569Z,2.50
2023-02-12T13:52:36.373Z,2.50
2023-02-12T13:55:25.467Z,2.50
2023-02-12T13:58:31.598Z,2.50
2023-02-12T14:01:10.218Z,2.50
2023-02-12T14:03:43.557Z,2.40
2023-02-12T14:06:18.229Z,2.50
2023-02-12T14:08:53.719Z,2.50
2023-02-12T14:11:25.161Z,2.40
2023-02-12T14:14:04.275Z,2.50
2023-02-12T14:16:46.920Z,2.50
2023-02-12T14:19:58.317Z,2.40
2023-02-12T14:23:17.186Z,2.50
2023-02-12T14:25:58.077Z,2.50
2023-02-12T14:28:37.109Z,2.50
2023-02-12T14:31:36.136Z,2.50
2023-02-12T14:34:51.380Z,2.50
2023-02-12T14:37:40.214Z,2.50
2023-02-12T14:40:45.573Z,2.50
2023-02-12T14:43:29.239Z,2.50
2023-02-12T14:46:16.638Z,2.40
2023-02-12T14:48:56.736Z,2.40
2023-02-12T14:51:37.339Z,2.40
2023-02-12T14:54:24.182Z,2.40
2023-02-12T14:56:55.708Z,2.40
2023-02-12T14:59:28.692Z,2.40
2023-02-12T15:02:03.330Z,2.40
2023-02-12T15:04:35.736Z,2.40
2023-02-12T15:07:10.444Z,2.40
2023-02-12T15:09:48.882Z,2.40
2023-02-12T15:12:26.589Z,2.30
2023-02-12T15:15:07.798Z,2.30
2023-02-12T15:17:52.386Z,2.30
2023-02-12T15:20:24.425Z,2.30
2023-02-12T15:22:59.517Z,2.20
2023-02-12T15:25:32.694Z,2.20
2023-02-12T15:28:05.688Z,2.20
2023-02-12T15:31:08.347Z,2.20
2023-02-12T15:33:36.624Z,2.10
2023-02-12T15:36:08.088Z,2.10
2023-02-12T15:41:29.805Z,2.00
2023-02-12T15:44:00.777Z,2.00
2023-02-12T15:46:29.670Z,2.00
2023-02-12T15:49:01.190Z,2.00
2023-02-12T15:51:37.362Z,2.00
2023-02-12T15:54:16.788Z,2.00
2023-02-12T15:56:48.694Z,2.00
2023-02-12T15:59:22.697Z,2.00
2023-02-12T16:02:00.671Z,1.90
2023-02-12T16:04:32.320Z,1.90
2023-02-12T16:07:02.417Z,1.90
2023-02-12T16:09:35.836Z,1.90
2023-02-12T16:12:15.052Z,1.90
2023-02-12T16:14:46.592Z,1.90
2023-02-12T16:17:33.337Z,2.00
2023-02-12T16:20:08.174Z,2.00
2023-02-12T16:22:42.841Z,2.00
2023-02-12T16:25:18.601Z,2.00
2023-02-12T16:27:58.385Z,2.00
2023-02-12T16:30:32.075Z,2.00
2023-02-12T16:33:04.005Z,2.00
2023-02-12T16:35:37.936Z,2.00
2023-02-12T16:38:41.047Z,2.00
2023-02-12T16:41:24.896Z,2.10
2023-02-12T16:44:23.843Z,2.10
2023-02-12T16:47:02.234Z,2.10
2023-02-12T16:49:35.642Z,2.10
2023-02-12T16:52:35.298Z,2.20
2023-02-12T16:55:24.306Z,2.20
2023-02-12T16:57:58.415Z,2.20
2023-02-12T17:00:29.070Z,2.20
2023-02-12T17:03:05.872Z,2.20
2023-02-12T17:05:41.521Z,2.30
2023-02-12T17:08:18.564Z,2.30
2023-02-12T17:10:48.399Z,2.20
2023-02-12T17:13:20.971Z,2.30
2023-02-12T17:15:55.569Z,2.30
2023-02-12T17:18:26.652Z,2.30
2023-02-12T17:21:00.162Z,2.30
2023-02-12T17:23:30.099Z,2.30
2023-02-12T17:25:59.476Z,2.30
2023-02-12T17:28:29.971Z,2.30
2023-02-12T17:31:00.386Z,2.30
2023-02-12T17:33:29.489Z,2.30
2023-02-12T17:36:02.202Z,2.30
2023-02-12T17:38:33.817Z,2.30
2023-02-12T17:41:20.723Z,2.30
2023-02-12T17:43:50.958Z,2.40
2023-02-12T17:46:22.776Z,2.40
2023-02-12T17:48:59.115Z,2.40
2023-02-12T17:51:28.686Z,2.40
2023-02-12T17:54:06.164Z,2.40
2023-02-12T17:56:49.685Z,2.50
2023-02-12T17:59:30.509Z,2.40
2023-02-12T18:02:13.579Z,2.50
2023-02-12T18:04:47.004Z,2.50
2023-02-12T18:07:19.564Z,2.50
2023-02-12T18:09:55.760Z,2.50
2023-02-12T18:12:28.190Z,2.50
2023-02-12T18:15:06.862Z,2.50
2023-02-12T18:17:40.168Z,2.50
2023-02-12T18:20:26.868Z,2.50
2023-02-12T18:23:04.221Z,2.50
2023-02-12T18:25:35.202Z,2.60
2023-02-12T18:28:13.249Z,2.60
2023-02-12T18:30:47.903Z,2.60
2023-02-12T18:33:24.419Z,2.60
2023-02-12T18:36:10.826Z,2.60
2023-02-12T18:38:43.973Z,2.60
2023-02-12T18:41:18.609Z,2.60
2023-02-12T18:43:58.333Z,2.60
2023-02-12T18:46:47.509Z,2.60
2023-02-12T18:49:21.014Z,2.70
2023-02-12T18:51:58.032Z,2.60
2023-02-12T18:54:39.031Z,2.60
2023-02-12T18:57:25.127Z,2.70
2023-02-12T19:00:16.652Z,2.70
2023-02-12T19:02:46.968Z,2.70
2023-02-12T19:05:18.909Z,2.70
2023-02-12T19:07:49.430Z,2.70
2023-02-12T19:10:18.222Z,2.70
2023-02-12T19:12:47.119Z,2.70
2023-02-12T19:15:34.900Z,2.70
2023-02-12T19:18:08.615Z,2.80
2023-02-12T19:20:43.074Z,2.70
2023-02-12T19:23:18.541Z,2.70
2023-02-12T19:25:56.087Z,2.70
2023-02-12T19:28:27.292Z,2.70
2023-02-12T19:30:56.716Z,2.70
2023-02-12T19:33:27.243Z,2.70
2023-02-12T19:35:57.957Z,2.70
2023-02-12T19:38:27.084Z,2.70
2023-02-12T19:41:04.708Z,2.70
2023-02-12T19:43:35.449Z,2.70
2023-02-12T19:46:10.179Z,2.70
2023-02-12T19:48:40.508Z,2.70
2023-02-12T19:51:15.178Z,2.70
2023-02-12T19:53:43.961Z,2.70
2023-02-12T19:56:19.501Z,2.70
2023-02-12T19:58:48.264Z,2.80
2023-02-12T20:01:19.640Z,2.80
2023-02-12T20:03:50.861Z,2.80
2023-02-12T20:06:22.913Z,2.80
2023-02-12T20:08:55.170Z,2.80
2023-02-12T20:11:25.977Z,2.70
2023-02-12T20:14:04.446Z,2.80
2023-02-12T20:16:39.901Z,2.70
2023-02-12T20:19:12.975Z,2.80
2023-02-12T20:21:45.114Z,2.70
2023-02-12T20:24:14.137Z,2.70
2023-02-12T20:26:43.608Z,2.80
2023-02-12T20:29:16.965Z,2.70
2023-02-12T20:31:48.691Z,2.70
2023-02-12T20:34:31.529Z,2.70
2023-02-12T20:37:03.077Z,2.70
2023-02-12T20:39:31.951Z,2.70
2023-02-12T20:42:00.921Z,2.70
2023-02-12T20:44:34.261Z,2.70
2023-02-12T20:47:05.668Z,2.70
2023-02-12T20:49:45.610Z,2.70
2023-02-12T20:52:21.705Z,2.70
2023-02-12T20:54:52.376Z,2.70
2023-02-12T20:57:26.874Z,2.80
2023-02-12T21:00:00.107Z,2.80
2023-02-12T21:02:32.936Z,2.80
2023-02-12T21:05:09.121Z,2.80
2023-02-12T21:07:39.560Z,2.80
2023-02-12T21:10:12.001Z,2.90
2023-02-12T21:12:43.435Z,2.80
2023-02-12T21:15:17.440Z,2.80
2023-02-12T21:17:53.396Z,2.90
2023-02-12T21:20:25.238Z,2.90
2023-02-12T21:22:53.984Z,2.90
2023-02-12T21:25:26.843Z,2.90
2023-02-12T21:27:56.729Z,3.00
2023-02-12T21:30:30.020Z,2.90
2023-02-12T21:33:04.872Z,2.90
2023-02-12T21:35:40.022Z,2.90
2023-02-12T21:38:09.901Z,2.90
2023-02-12T21:40:41.187Z,2.90
2023-02-12T21:43:13.345Z,2.90
2023-02-12T21:45:52.641Z,2.90
2023-02-12T21:48:23.315Z,2.90
2023-02-12T21:50:53.600Z,2.90
2023-02-12T21:53:37.087Z,2.90
2023-02-12T21:56:08.482Z,2.90
2023-02-12T21:58:51.575Z,2.90
2023-02-12T22:01:34.731Z,2.90
2023-02-12T22:04:24.551Z,2.90
2023-02-12T22:09:55.090Z,2.90
2023-02-12T22:12:50.757Z,2.90
2023-02-12T22:16:07.491Z,2.90
2023-02-12T22:19:11.745Z,2.90
2023-02-12T22:21:46.363Z,2.90
2023-02-12T22:24:20.862Z,2.80
2023-02-12T22:26:49.757Z,2.80
2023-02-12T22:29:22.775Z,2.80
2023-02-12T22:31:54.897Z,2.80
2023-02-12T22:34:49.460Z,2.80
2023-02-12T22:37:20.954Z,2.80
2023-02-12T22:39:52.363Z,2.80
2023-02-12T22:42:22.124Z,2.80
2023-02-12T22:47:43.836Z,2.80
2023-02-12T22:50:24.070Z,2.80
2023-02-12T22:52:55.965Z,2.80
2023-02-12T22:55:26.307Z,2.80
2023-02-12T22:58:02.597Z,2.80
2023-02-12T23:00:34.478Z,2.80
2023-02-12T23:03:11.181Z,2.80
2023-02-12T23:05:43.575Z,2.80
2023-02-12T23:08:14.630Z,2.80
2023-02-12T23:10:52.954Z,2.80
2023-02-12T23:13:29.561Z,2.80
2023-02-12T23:16:07.710Z,2.80
2023-02-12T23:18:36.599Z,2.80
2023-02-12T23:21:09.798Z,2.80
2023-02-12T23:23:38.505Z,2.80
2023-02-12T23:26:22.877Z,2.80
2023-02-12T23:28:57.482Z,2.80
2023-02-12T23:31:29.388Z,2.80
2023-02-12T23:34:03.473Z,2.80
2023-02-12T23:36:33.241Z,2.90
2023-02-12T23:39:06.253Z,2.90
2023-02-12T23:41:37.898Z,2.90
2023-02-12T23:44:07.098Z,2.90
2023-02-12T23:46:42.048Z,2.90
2023-02-12T23:49:17.810Z,2.90
2023-02-12T23:51:49.502Z,2.90
2023-02-12T23:54:18.367Z,2.90
2023-02-12T23:56:52.914Z,2.90
2023-02-12T23:59:21.699Z,2.90
